Time;durP1;ratioP1;P1;durP2;ratioP2;P2;SDS_P1;SDS_P2;PMS_P1;PMS_P2;Temp;Humidity;BMP_temperature;BMP_pressure;BME280_temperature;BME280_humidity;BME280_pressure;Samples;Min_cycle;Max_cycle;Signal;HPM_P1;HPM_P2
2023/01/16 00:01:59;;;;;;;2.63;0.98;;;6.00;99.90;;;;;;5053474;28;20178;-80
2023/01/16 00:04:25;;;;;;;6.30;1.10;;;6.00;99.90;;;;;;5053307;28;20186;-80
2023/01/16 00:06:51;;;;;;;6.30;0.98;;;6.00;99.90;;;;;;5052079;28;20168;-81
2023/01/16 00:09:18;;;;;;;0.50;0.50;;;6.10;99.90;;;;;;5053244;28;20579;-80
2023/01/16 00:11:43;;;;;;;2.22;0.82;;;6.10;99.90;;;;;;5053101;28;20164;-80
2023/01/16 00:14:09;;;;;;;1.25;0.93;;;6.30;99.90;;;;;;5053377;28;20293;-81
2023/01/16 00:16:35;;;;;;;2.95;0.57;;;6.30;99.90;;;;;;5051823;28;20207;-82
2023/01/16 00:19:00;;;;;;;0.65;0.50;;;6.40;99.90;;;;;;5053242;28;20194;-80
2023/01/16 00:21:27;;;;;;;2.50;0.65;;;6.50;99.90;;;;;;5051213;28;20253;-80
2023/01/16 00:23:57;;;;;;;1.17;1.08;;;6.40;99.90;;;;;;5052740;28;20285;-80
2023/01/16 00:26:24;;;;;;;4.93;0.70;;;6.20;99.90;;;;;;5052838;28;20167;-81
2023/01/16 00:28:49;;;;;;;7.32;1.05;;;6.20;99.90;;;;;;5051986;28;20616;-80
2023/01/16 00:31:16;;;;;;;5.75;0.73;;;6.10;99.90;;;;;;5052690;28;20178;-80
2023/01/16 00:33:42;;;;;;;0.60;0.57;;;6.20;99.90;;;;;;5052724;28;20201;-82
2023/01/16 00:36:09;;;;;;;1.90;0.95;;;6.10;99.90;;;;;;5050940;28;20207;-80
2023/01/16 00:38:35;;;;;;;0.63;0.50;;;6.30;99.90;;;;;;5051306;28;20519;-81
2023/01/16 00:41:01;;;;;;;2.60;0.93;;;6.30;99.90;;;;;;5051263;28;20197;-80
2023/01/16 00:43:26;;;;;;;1.02;0.45;;;6.30;99.90;;;;;;5051653;28;20167;-80
2023/01/16 00:45:52;;;;;;;0.95;0.77;;;6.30;99.90;;;;;;5051289;28;20542;-80
2023/01/16 00:48:17;;;;;;;6.35;0.95;;;6.40;99.90;;;;;;5052540;28;20159;-81
2023/01/16 00:50:43;;;;;;;2.90;0.90;;;6.40;99.90;;;;;;5052326;28;20627;-81
2023/01/16 00:53:09;;;;;;;9.40;1.05;;;6.50;99.90;;;;;;5050986;28;20178;-81
2023/01/16 00:55:36;;;;;;;0.82;0.80;;;6.60;99.90;;;;;;5052085;28;20316;-80
2023/01/16 00:58:03;;;;;;;1.08;0.73;;;6.50;99.90;;;;;;5050831;28;20171;-80
2023/01/16 01:00:28;;;;;;;7.45;0.77;;;6.50;99.90;;;;;;5050806;28;20171;-81
2023/01/16 01:02:54;;;;;;;2.88;1.25;;;6.50;99.90;;;;;;5052525;28;20186;-80
2023/01/16 01:05:20;;;;;;;7.72;2.17;;;6.50;99.90;;;;;;5052573;28;20613;-81
2023/01/16 01:07:46;;;;;;;3.53;0.70;;;6.50;99.90;;;;;;5051022;28;20619;-80
2023/01/16 01:10:11;;;;;;;3.17;0.88;;;6.60;99.90;;;;;;5052407;28;20615;-80
2023/01/16 01:12:37;;;;;;;1.67;0.85;;;6.70;99.90;;;;;;5051840;28;20174;-80
2023/01/16 01:15:03;;;;;;;4.22;0.63;;;6.60;99.90;;;;;;5050567;28;20182;-80
2023/01/16 01:17:29;;;;;;;3.20;0.80;;;6.50;99.90;;;;;;5050901;28;20178;-80
2023/01/16 01:19:54;;;;;;;10.10;0.88;;;6.40;99.90;;;;;;5051940;28;20179;-80
2023/01/16 01:22:20;;;;;;;2.88;0.80;;;6.20;99.90;;;;;;5052317;28;20218;-80
2023/01/16 01:24:49;;;;;;;8.20;1.35;;;6.20;99.90;;;;;;5051867;28;20233;-80
2023/01/16 01:27:16;;;;;;;5.22;1.08;;;6.40;99.90;;;;;;5050266;28;20209;-80
2023/01/16 01:29:42;;;;;;;16.15;1.65;;;6.50;99.90;;;;;;5051699;28;20187;-82
2023/01/16 01:32:07;;;;;;;7.15;0.90;;;6.50;99.90;;;;;;5051822;28;20623;-81
2023/01/16 01:34:34;;;;;;;4.20;1.60;;;6.50;99.90;;;;;;5050810;28;20202;-81
2023/01/16 01:37:04;;;;;;;2.50;1.40;;;6.50;99.90;;;;;;5050285;28;20203;-80
2023/01/16 01:39:30;;;;;;;5.05;1.13;;;6.40;99.90;;;;;;5052424;28;20163;-81
2023/01/16 01:42:41;;;;;;;1.80;1.10;;;6.50;99.90;;;;;;5055907;28;20284;-81
2023/01/16 01:45:05;;;;;;;8.65;1.20;;;6.50;99.90;;;;;;5055911;28;20266;-81
2023/01/16 01:47:37;;;;;;;2.55;1.15;;;6.60;99.90;;;;;;5056159;28;20190;-81
2023/01/16 01:50:11;;;;;;;13.35;1.10;;;6.60;99.90;;;;;;5054759;28;20171;-80
2023/01/16 01:52:37;;;;;;;7.35;1.10;;;6.50;99.90;;;;;;5054117;28;20236;-80
2023/01/16 01:55:06;;;;;;;4.97;1.20;;;6.60;99.90;;;;;;5053970;28;20191;-80
2023/01/16 01:57:40;;;;;;;8.13;1.23;;;6.60;99.90;;;;;;5055564;28;20261;-80
2023/01/16 02:00:15;;;;;;;3.72;1.05;;;6.70;99.90;;;;;;5055465;28;20508;-80
2023/01/16 02:03:15;;;;;;;3.65;1.10;;;6.60;99.90;;;;;;5055469;28;20174;-81
2023/01/16 02:05:48;;;;;;;4.07;1.30;;;6.50;99.90;;;;;;5012517;28;20248;-81
2023/01/16 02:08:20;;;;;;;5.57;1.42;;;6.60;99.90;;;;;;5055542;28;20232;-80
2023/01/16 02:10:52;;;;;;;5.03;1.38;;;6.70;99.90;;;;;;5055174;28;20179;-80
2023/01/16 02:13:17;;;;;;;5.97;1.42;;;6.60;99.90;;;;;;5055376;28;20198;-80
2023/01/16 02:22:03;;;;;;;2.92;1.20;;;6.50;99.90;;;;;;5055389;28;20244;-81
2023/01/16 02:24:59;;;;;;;6.45;0.77;;;6.50;99.90;;;;;;5021445;28;20203;-80
2023/01/16 02:27:53;;;;;;;7.78;1.23;;;6.50;99.90;;;;;;5055220;28;20175;-81
2023/01/16 02:30:46;;;;;;;5.57;1.15;;;6.70;99.90;;;;;;5055583;28;20190;-80
2023/01/16 02:33:17;;;;;;;8.90;1.38;;;6.80;99.90;;;;;;5054939;28;20163;-81
2023/01/16 02:35:49;;;;;;;4.10;1.17;;;6.90;99.90;;;;;;5053629;28;20298;-80
2023/01/16 02:38:29;;;;;;;9.02;1.52;;;6.80;99.90;;;;;;5055148;28;20229;-81
2023/01/16 02:41:16;;;;;;;5.10;0.90;;;6.80;99.90;;;;;;5054819;28;20262;-81
2023/01/16 02:43:47;;;;;;;6.05;1.08;;;6.90;99.90;;;;;;5055323;28;20167;-80
2023/01/16 02:46:24;;;;;;;3.00;1.17;;;6.90;99.90;;;;;;5053735;28;20179;-80
2023/01/16 02:49:00;;;;;;;1.10;1.00;;;6.90;99.90;;;;;;5054788;28;20236;-80
2023/01/16 02:51:51;;;;;;;5.30;0.93;;;7.00;99.90;;;;;;5053011;28;20163;-81
2023/01/16 02:54:22;;;;;;;7.00;1.25;;;7.10;99.90;;;;;;5053324;28;20216;-80
2023/01/16 02:57:06;;;;;;;1.65;0.82;;;7.10;99.90;;;;;;5054181;28;20206;-80
2023/01/16 02:59:32;;;;;;;2.47;1.15;;;7.10;99.90;;;;;;5054520;28;20198;-81
2023/01/16 03:02:00;;;;;;;5.72;1.25;;;7.10;99.90;;;;;;5053329;28;20171;-81
2023/01/16 03:04:42;;;;;;;6.10;1.25;;;7.10;99.90;;;;;;5054463;28;20241;-80
2023/01/16 03:07:35;;;;;;;5.20;1.20;;;7.20;99.90;;;;;;5054499;28;20170;-80
2023/01/16 03:10:29;;;;;;;1.67;0.65;;;7.30;99.90;;;;;;5054231;28;20221;-80
2023/01/16 03:13:15;;;;;;;4.88;1.00;;;7.20;99.90;;;;;;5053099;28;20207;-80
2023/01/16 03:15:56;;;;;;;7.43;1.65;;;7.10;99.90;;;;;;5054335;28;20360;-80
2023/01/16 03:18:59;;;;;;;4.30;1.35;;;7.10;99.90;;;;;;5054110;28;20651;-81
2023/01/16 03:22:00;;;;;;;6.18;1.13;;;7.20;99.90;;;;;;5053962;28;20185;-81
2023/01/16 03:24:44;;;;;;;2.55;1.10;;;7.30;99.90;;;;;;5002207;28;20628;-82
2023/01/16 03:27:53;;;;;;;2.08;0.73;;;7.30;99.90;;;;;;5057007;28;20167;-81
2023/01/16 03:30:37;;;;;;;10.10;0.90;;;7.20;99.90;;;;;;5029551;28;20187;-80
2023/01/16 03:33:30;;;;;;;4.10;1.05;;;7.10;99.90;;;;;;5056096;28;20183;-81
2023/01/16 03:36:05;;;;;;;4.30;0.70;;;7.10;99.90;;;;;;5040382;28;20287;-80
2023/01/16 03:38:32;;;;;;;2.67;0.52;;;7.20;99.90;;;;;;5055476;28;20167;-81
2023/01/16 03:41:03;;;;;;;2.45;0.70;;;7.20;99.90;;;;;;5057850;28;20175;-80
2023/01/16 03:43:36;;;;;;;10.35;0.90;;;7.20;99.90;;;;;;5066442;28;20159;-81
2023/01/16 03:46:06;;;;;;;6.25;0.75;;;7.30;99.90;;;;;;5063981;28;20251;-81
2023/01/16 03:48:43;;;;;;;2.42;1.00;;;7.20;99.90;;;;;;5059668;28;20175;-82
2023/01/16 03:51:13;;;;;;;2.15;0.70;;;7.10;99.90;;;;;;5059237;28;20175;-80
2023/01/16 03:53:59;;;;;;;5.65;1.48;;;7.30;99.90;;;;;;5058919;28;20178;-81
2023/01/16 03:56:47;;;;;;;4.72;0.98;;;7.30;99.90;;;;;;5057581;28;20211;-81
2023/01/16 03:59:14;;;;;;;3.42;0.88;;;7.20;99.90;;;;;;5056823;28;20163;-81
2023/01/16 04:01:50;;;;;;;6.07;1.15;;;7.30;99.90;;;;;;5053987;28;20174;-82
2023/01/16 04:04:43;;;;;;;5.53;1.00;;;7.30;99.90;;;;;;5056434;28;20197;-80
2023/01/16 04:07:20;;;;;;;3.35;1.48;;;7.30;99.90;;;;;;5056961;28;20171;-81
2023/01/16 04:10:00;;;;;;;5.65;1.42;;;7.30;99.90;;;;;;5057276;28;20175;-80
2023/01/16 04:12:51;;;;;;;2.00;1.15;;;7.30;99.90;;;;;;5056858;28;20636;-80
2023/01/16 04:15:19;;;;;;;10.05;1.10;;;7.20;99.90;;;;;;5055321;28;20210;-80
2023/01/16 04:17:45;;;;;;;3.40;0.80;;;7.00;99.90;;;;;;5056620;28;20171;-80
2023/01/16 04:20:11;;;;;;;4.97;0.93;;;7.00;99.90;;;;;;5057860;28;20245;-80
2023/01/16 04:22:37;;;;;;;3.42;1.30;;;7.10;99.90;;;;;;5060636;28;20201;-80
2023/01/16 04:25:07;;;;;;;9.82;0.82;;;7.10;99.90;;;;;;5061542;28;20187;-81
2023/01/16 04:27:34;;;;;;;14.75;0.90;;;7.10;99.90;;;;;;5059032;28;20159;-80
2023/01/16 04:30:00;;;;;;;7.20;1.23;;;7.00;99.90;;;;;;5060910;28;20161;-80
2023/01/16 04:32:26;;;;;;;2.08;0.70;;;7.00;99.90;;;;;;5059280;28;20159;-80
2023/01/16 04:34:51;;;;;;;7.38;0.75;;;6.90;99.90;;;;;;5059473;28;20247;-80
2023/01/16 04:37:18;;;;;;;4.55;0.70;;;6.90;99.90;;;;;;5058716;28;20209;-80
2023/01/16 04:39:44;;;;;;;3.63;0.90;;;6.90;99.90;;;;;;5057471;28;20167;-80
2023/01/16 04:42:10;;;;;;;3.72;1.00;;;7.00;99.90;;;;;;5056488;28;20171;-80
2023/01/16 04:44:35;;;;;;;8.48;1.08;;;7.10;99.90;;;;;;5058153;28;20218;-80
2023/01/16 04:47:03;;;;;;;5.63;0.90;;;7.00;99.90;;;;;;5061865;28;20537;-79
2023/01/16 04:49:28;;;;;;;6.72;0.75;;;7.00;99.90;;;;;;5059484;28;20171;-80
2023/01/16 04:51:54;;;;;;;1.38;0.80;;;7.00;99.90;;;;;;5057940;28;20178;-80
2023/01/16 04:54:20;;;;;;;7.78;1.13;;;7.20;99.90;;;;;;5058118;28;20187;-80
2023/01/16 04:56:46;;;;;;;0.88;0.55;;;7.20;99.90;;;;;;5057840;28;20217;-80
2023/01/16 04:59:12;;;;;;;5.88;0.73;;;7.10;99.90;;;;;;5061516;28;20163;-80
2023/01/16 05:01:39;;;;;;;6.93;1.00;;;7.00;99.90;;;;;;5059952;28;20251;-81
2023/01/16 05:04:09;;;;;;;0.90;0.75;;;7.00;99.90;;;;;;5060341;28;20186;-80
2023/01/16 05:06:35;;;;;;;9.18;0.88;;;7.10;99.90;;;;;;5060536;28;20167;-81
2023/01/16 05:09:03;;;;;;;4.38;0.90;;;7.00;99.90;;;;;;5059755;28;20167;-81
2023/01/16 05:11:29;;;;;;;5.13;0.95;;;7.00;99.90;;;;;;5056621;28;20189;-79
2023/01/16 05:13:55;;;;;;;1.95;0.70;;;6.90;99.90;;;;;;5055585;28;20183;-81
2023/01/16 05:16:20;;;;;;;5.10;0.98;;;6.90;99.90;;;;;;5062864;28;20213;-81
2023/01/16 05:18:46;;;;;;;8.05;1.23;;;6.90;99.90;;;;;;5060526;28;20187;-80
2023/01/16 05:21:12;;;;;;;2.42;1.45;;;6.80;99.90;;;;;;5045221;28;20260;-81
2023/01/16 05:23:38;;;;;;;6.32;0.70;;;6.70;99.90;;;;;;5058958;28;20658;-81
2023/01/16 05:26:05;;;;;;;7.40;0.80;;;6.70;99.90;;;;;;5057858;28;20198;-80
2023/01/16 05:28:31;;;;;;;4.10;0.82;;;6.60;99.90;;;;;;5054539;28;20167;-82
2023/01/16 05:30:58;;;;;;;4.10;0.70;;;6.60;99.90;;;;;;5053213;28;20174;-81
2023/01/16 05:33:24;;;;;;;1.75;0.75;;;6.70;99.90;;;;;;5062240;28;20167;-81
2023/01/16 05:35:53;;;;;;;2.25;0.70;;;6.70;99.90;;;;;;5059653;28;20733;-81
2023/01/16 05:38:22;;;;;;;5.68;0.90;;;6.70;99.90;;;;;;5056507;28;20167;-81
2023/01/16 05:40:48;;;;;;;3.90;0.80;;;6.60;99.90;;;;;;5061507;28;20175;-81
2023/01/16 05:43:15;;;;;;;2.22;0.82;;;6.60;99.90;;;;;;5061153;28;20198;-81
2023/01/16 05:45:41;;;;;;;0.73;0.50;;;6.60;99.90;;;;;;5061760;28;20190;-81
2023/01/16 05:48:06;;;;;;;3.50;0.52;;;6.50;99.90;;;;;;5056876;28;20175;-81
2023/01/16 05:50:32;;;;;;;1.88;0.70;;;6.40;99.90;;;;;;5060058;28;20253;-82
2023/01/16 05:52:58;;;;;;;2.50;1.15;;;6.30;99.90;;;;;;5065931;28;20147;-81
2023/01/16 05:55:24;;;;;;;1.38;0.38;;;6.30;99.90;;;;;;5047710;28;20218;-82
2023/01/16 05:57:50;;;;;;;1.27;0.75;;;6.40;99.90;;;;;;5072260;28;20175;-80
2023/01/16 06:00:17;;;;;;;2.78;0.50;;;6.40;99.90;;;;;;5066731;28;20604;-82
2023/01/16 06:02:42;;;;;;;2.80;0.60;;;6.40;99.90;;;;;;5060569;28;20229;-83
2023/01/16 06:05:10;;;;;;;0.90;0.35;;;6.40;99.90;;;;;;5060684;28;20187;-81
2023/01/16 06:07:35;;;;;;;2.88;0.80;;;6.30;99.90;;;;;;5057680;28;20174;-84
2023/01/16 06:10:01;;;;;;;2.20;0.68;;;6.20;99.90;;;;;;5058212;28;20501;-81
2023/01/16 06:12:28;;;;;;;1.92;0.30;;;6.20;99.90;;;;;;5070459;28;20178;-82
2023/01/16 06:14:54;;;;;;;5.47;0.82;;;6.20;99.90;;;;;;5062160;28;20194;-82
2023/01/16 06:17:19;;;;;;;1.55;0.32;;;6.20;99.90;;;;;;5057062;28;20203;-82
2023/01/16 06:19:46;;;;;;;1.23;0.38;;;6.20;99.90;;;;;;5058528;28;20540;-82
2023/01/16 06:22:13;;;;;;;2.35;0.40;;;6.10;99.90;;;;;;5055512;28;20167;-82
2023/01/16 06:24:38;;;;;;;0.85;0.50;;;6.10;99.90;;;;;;5061592;28;20167;-83
2023/01/16 06:27:04;;;;;;;1.00;0.50;;;6.10;99.90;;;;;;5055297;28;20258;-82
2023/01/16 06:29:29;;;;;;;0.52;0.30;;;6.10;99.90;;;;;;5054824;28;20567;-83
2023/01/16 06:31:55;;;;;;;3.15;0.55;;;6.10;99.90;;;;;;5054696;28;20511;-82
2023/01/16 06:34:21;;;;;;;0.28;0.28;;;6.20;99.90;;;;;;5054756;28;20187;-83
2023/01/16 06:36:48;;;;;;;0.77;0.73;;;6.30;99.90;;;;;;5053164;28;20268;-82
2023/01/16 06:39:14;;;;;;;0.80;0.30;;;6.20;99.90;;;;;;5054532;28;20252;-81
2023/01/16 06:41:40;;;;;;;0.17;0.17;;;6.10;99.90;;;;;;5054607;28;20274;-87
2023/01/16 06:44:06;;;;;;;2.15;0.30;;;6.10;99.90;;;;;;5054544;28;20555;-81
2023/01/16 06:46:31;;;;;;;0.52;0.40;;;6.10;99.90;;;;;;5054370;28;20531;-81
2023/01/16 06:48:57;;;;;;;3.03;0.30;;;6.10;99.90;;;;;;5053337;28;20167;-82
2023/01/16 06:51:23;;;;;;;3.03;0.40;;;6.00;99.90;;;;;;5052890;28;20646;-83
2023/01/16 06:53:48;;;;;;;4.75;0.50;;;6.00;99.90;;;;;;5054171;28;20186;-84
2023/01/16 06:56:14;;;;;;;1.92;0.57;;;6.10;99.90;;;;;;5053816;28;20203;-81
2023/01/16 06:58:40;;;;;;;3.35;0.40;;;6.20;99.90;;;;;;5052852;28;20505;-80
2023/01/16 07:01:06;;;;;;;2.38;0.50;;;6.30;99.90;;;;;;5053175;28;20261;-81
2023/01/16 07:03:32;;;;;;;0.63;0.20;;;6.30;99.90;;;;;;5053034;28;20171;-82
2023/01/16 07:05:58;;;;;;;0.45;0.35;;;6.20;99.90;;;;;;5052528;28;20556;-82
2023/01/16 07:08:23;;;;;;;2.35;0.50;;;6.10;99.90;;;;;;5052698;28;20175;-82
2023/01/16 07:10:49;;;;;;;0.25;0.25;;;6.10;99.90;;;;;;5052279;28;20206;-82
2023/01/16 07:13:15;;;;;;;0.63;0.60;;;6.10;99.90;;;;;;5054081;28;20213;-82
2023/01/16 07:24:02;;;;;;;0.98;0.38;;;6.00;99.90;;;;;;5053898;28;20758;-81
2023/01/16 07:26:28;;;;;;;0.20;0.20;;;6.00;99.90;;;;;;5054107;28;20522;-80
2023/01/16 07:28:54;;;;;;;0.52;0.50;;;5.90;99.90;;;;;;5053923;28;20168;-81
2023/01/16 07:31:21;;;;;;;3.53;0.22;;;6.00;99.90;;;;;;5053299;28;20335;-80
2023/01/16 07:33:46;;;;;;;0.50;0.50;;;6.00;99.90;;;;;;5053154;28;20175;-80
2023/01/16 07:36:12;;;;;;;2.15;0.25;;;6.00;99.90;;;;;;5051620;28;20302;-80
2023/01/16 07:38:37;;;;;;;0.93;0.35;;;6.00;99.90;;;;;;5048464;28;20195;-85
2023/01/16 07:41:03;;;;;;;0.38;0.38;;;6.10;99.90;;;;;;5052295;28;20190;-82
2023/01/16 07:43:29;;;;;;;0.30;0.20;;;6.10;99.90;;;;;;5051481;28;20225;-84
2023/01/16 07:45:54;;;;;;;3.38;0.70;;;6.20;99.90;;;;;;5050886;28;20198;-81
2023/01/16 07:48:21;;;;;;;0.30;0.30;;;6.30;99.90;;;;;;5050269;28;20364;-81
2023/01/16 07:50:51;;;;;;;0.40;0.40;;;6.30;99.90;;;;;;5051588;28;20544;-81
2023/01/16 07:53:21;;;;;;;0.80;0.52;;;6.30;99.90;;;;;;5053159;28;20175;-83
2023/01/16 07:55:48;;;;;;;0.30;0.30;;;6.30;99.90;;;;;;5050797;28;20693;-83
2023/01/16 07:58:14;;;;;;;0.52;0.40;;;6.40;99.90;;;;;;5051644;28;20632;-82
2023/01/16 08:00:39;;;;;;;0.35;0.35;;;6.40;99.90;;;;;;5052837;28;20182;-80
2023/01/16 08:03:05;;;;;;;0.52;0.30;;;6.30;99.90;;;;;;5051739;28;20175;-81
2023/01/16 08:05:31;;;;;;;0.20;0.20;;;6.40;99.90;;;;;;5050710;28;20190;-82
2023/01/16 08:07:56;;;;;;;0.40;0.40;;;6.40;99.90;;;;;;5052014;28;20639;-81
2023/01/16 08:10:22;;;;;;;0.30;0.30;;;6.40;99.90;;;;;;5051336;28;20183;-82
2023/01/16 08:12:47;;;;;;;6.40;0.65;;;6.40;99.90;;;;;;5052733;28;20168;-81
2023/01/16 08:15:13;;;;;;;0.98;0.40;;;6.40;99.90;;;;;;5051416;28;20230;-82
2023/01/16 08:17:42;;;;;;;2.17;0.52;;;6.50;99.90;;;;;;5053310;28;20235;-81
2023/01/16 08:20:09;;;;;;;0.40;0.40;;;6.40;99.90;;;;;;5065987;28;20225;-82
2023/01/16 08:22:34;;;;;;;0.70;0.52;;;6.40;99.90;;;;;;5035000;28;20244;-82
2023/01/16 08:25:00;;;;;;;0.35;0.35;;;6.50;99.90;;;;;;5052896;28;20187;-79
2023/01/16 08:27:29;;;;;;;2.25;0.70;;;6.70;99.90;;;;;;5051981;28;20225;-86
2023/01/16 08:29:54;;;;;;;0.90;0.50;;;6.70;99.90;;;;;;5051178;28;20250;-84
2023/01/16 08:32:20;;;;;;;0.40;0.40;;;6.90;99.90;;;;;;5052751;28;20275;-83
2023/01/16 08:34:45;;;;;;;0.43;0.30;;;6.80;99.90;;;;;;5053274;28;20175;-86
2023/01/16 08:37:11;;;;;;;1.80;0.52;;;6.90;99.90;;;;;;5052576;28;20561;-83
2023/01/16 08:39:37;;;;;;;0.40;0.40;;;7.00;99.90;;;;;;5052478;28;20163;-80
2023/01/16 08:53:04;;;;;;;2.50;0.47;;;7.20;99.90;;;;;;5052340;28;20191;-85
2023/01/16 08:55:30;;;;;;;0.77;0.60;;;7.30;99.90;;;;;;5050760;28;20203;-85
2023/01/16 08:57:58;;;;;;;2.92;0.65;;;7.10;99.90;;;;;;5052795;28;20178;-82
2023/01/16 09:00:25;;;;;;;0.75;0.50;;;7.20;99.90;;;;;;5051277;28;20163;-82
2023/01/16 09:02:51;;;;;;;2.47;0.60;;;7.20;99.90;;;;;;5049770;28;20171;-82
2023/01/16 09:05:17;;;;;;;0.90;0.50;;;7.20;99.90;;;;;;5049347;28;20218;-79
2023/01/16 09:07:43;;;;;;;0.63;0.50;;;7.20;99.90;;;;;;5050537;28;20189;-79
2023/01/16 09:10:11;;;;;;;0.50;0.50;;;7.20;99.90;;;;;;5051695;28;20642;-80
2023/01/16 09:15:21;;;;;;;2.28;0.73;;;7.20;99.90;;;;;;5052541;28;20691;-82
2023/01/16 09:17:47;;;;;;;0.75;0.50;;;7.00;99.90;;;;;;5050942;28;20202;-83
2023/01/16 09:20:13;;;;;;;7.13;0.70;;;6.90;99.90;;;;;;5052004;28;20682;-81
2023/01/16 09:22:39;;;;;;;1.00;0.50;;;6.80;99.90;;;;;;5051206;28;20191;-82
2023/01/16 09:25:05;;;;;;;3.00;0.60;;;6.70;99.90;;;;;;5050243;28;20191;-81
2023/01/16 09:27:31;;;;;;;1.45;1.08;;;6.80;99.90;;;;;;5052862;28;20186;-83
2023/01/16 09:29:57;;;;;;;0.57;0.43;;;6.70;99.90;;;;;;5051292;28;20174;-81
2023/01/16 09:32:22;;;;;;;0.50;0.50;;;6.80;99.90;;;;;;5050331;28;20179;-81
2023/01/16 09:34:48;;;;;;;0.50;0.40;;;6.70;99.90;;;;;;5050159;28;20183;-82
2023/01/16 09:37:13;;;;;;;2.55;0.80;;;6.90;99.90;;;;;;5051715;28;20594;-84
2023/01/16 09:39:39;;;;;;;0.70;0.70;;;6.90;99.90;;;;;;5051882;28;20243;-80
2023/01/16 09:45:03;;;;;;;1.05;0.57;;;7.00;99.90;;;;;;5051574;28;20197;-81
2023/01/16 09:47:31;;;;;;;1.25;0.57;;;7.20;99.90;;;;;;5051997;28;20642;-80
2023/01/16 09:50:22;;;;;;;5.25;1.10;;;7.40;99.90;;;;;;5051854;28;20171;-79
2023/01/16 09:58:35;;;;;;;0.77;0.68;;;7.90;99.90;;;;;;5051800;28;20228;-80
2023/01/16 10:01:10;;;;;;;0.40;0.40;;;7.80;99.90;;;;;;5053088;28;20167;-80
2023/01/16 10:03:42;;;;;;;0.90;0.50;;;7.90;99.90;;;;;;5055293;28;20163;-80
2023/01/16 10:06:22;;;;;;;0.40;0.30;;;7.80;99.90;;;;;;5053869;28;20282;-81
2023/01/16 10:09:00;;;;;;;1.65;0.50;;;7.80;99.90;;;;;;5053721;28;20181;-79
2023/01/16 10:11:37;;;;;;;5.13;0.50;;;7.70;99.90;;;;;;5055333;28;20221;-81
2023/01/16 10:14:35;;;;;;;1.38;0.60;;;7.80;99.90;;;;;;5055071;28;20171;-83
2023/01/16 10:17:08;;;;;;;2.67;0.55;;;7.90;99.90;;;;;;5054465;28;20671;-80
2023/01/16 10:19:52;;;;;;;0.50;0.50;;;7.70;99.90;;;;;;5054612;28;20313;-80
2023/01/16 10:22:43;;;;;;;1.90;0.50;;;7.60;99.90;;;;;;5054811;28;20193;-83
2023/01/16 10:25:14;;;;;;;4.03;0.50;;;7.70;99.90;;;;;;5054649;28;20191;-83
2023/01/16 10:27:45;;;;;;;3.58;0.73;;;7.50;99.90;;;;;;5055576;28;20631;-82
2023/01/16 10:30:23;;;;;;;4.72;0.60;;;7.50;99.90;;;;;;5055149;28;20198;-85
2023/01/16 10:33:04;;;;;;;0.30;0.30;;;7.40;99.90;;;;;;5054724;28;20254;-85
2023/01/16 10:35:35;;;;;;;4.75;0.40;;;7.50;99.90;;;;;;5055966;28;20253;-84
2023/01/16 10:38:16;;;;;;;0.75;0.40;;;7.60;99.90;;;;;;5055038;28;20171;-83
2023/01/16 10:40:43;;;;;;;0.80;0.50;;;7.70;99.90;;;;;;5056181;28;20173;-83
2023/01/16 10:51:46;;;;;;;0.43;0.40;;;7.30;99.90;;;;;;5055992;28;20209;-86
2023/01/16 10:54:12;;;;;;;0.20;0.20;;;7.50;99.90;;;;;;5056059;28;20631;-87
2023/01/16 10:56:40;;;;;;;0.55;0.45;;;7.70;99.90;;;;;;5055948;28;20264;-86
2023/01/16 10:59:06;;;;;;;0.77;0.30;;;7.80;99.90;;;;;;5054441;28;20164;-83
2023/01/16 11:01:32;;;;;;;0.52;0.50;;;7.60;99.90;;;;;;5055687;28;20538;-85
2023/01/16 11:04:00;;;;;;;3.83;0.50;;;7.80;99.90;;;;;;5054284;28;20174;-84
2023/01/16 11:06:30;;;;;;;1.83;0.63;;;7.80;99.90;;;;;;5055381;28;20202;-86
2023/01/16 11:09:01;;;;;;;1.20;0.60;;;8.00;99.90;;;;;;5054324;28;20659;-84
2023/01/16 11:20:15;;;;;;;4.30;0.60;;;8.00;99.90;;;;;;5054613;28;20272;-84
2023/01/16 11:22:41;;;;;;;4.13;0.90;;;7.90;99.90;;;;;;5051869;28;20171;-83
2023/01/16 11:25:14;;;;;;;0.70;0.63;;;8.00;99.90;;;;;;5054826;28;20546;-86
2023/01/16 11:27:40;;;;;;;1.67;0.63;;;8.10;99.90;;;;;;5054074;28;20191;-84
2023/01/16 11:30:19;;;;;;;5.05;0.80;;;8.10;99.90;;;;;;5054947;28;20248;-87
2023/01/16 11:32:48;;;;;;;1.00;0.77;;;8.10;99.90;;;;;;5055108;28;20160;-83
2023/01/16 11:35:15;;;;;;;3.90;1.13;;;8.20;99.90;;;;;;5054507;28;20214;-83
2023/01/16 11:37:44;;;;;;;1.65;0.70;;;8.20;99.90;;;;;;5053851;28;20177;-86
2023/01/16 11:40:19;;;;;;;1.85;0.80;;;8.30;99.90;;;;;;5055193;28;20176;-81
2023/01/16 11:48:26;;;;;;;4.50;1.17;;;8.60;99.90;;;;;;5054834;28;20170;-85
2023/01/16 11:50:56;;;;;;;1.75;1.17;;;8.70;99.90;;;;;;5053554;28;20167;-83
2023/01/16 11:53:22;;;;;;;1.55;1.30;;;8.50;99.90;;;;;;5054290;28;20262;-86
2023/01/16 11:56:06;;;;;;;1.13;0.88;;;8.60;99.90;;;;;;5054845;28;20199;-84
2023/01/16 11:58:46;;;;;;;1.10;1.00;;;8.50;99.90;;;;;;5050751;28;20179;-85
2023/01/16 12:01:18;;;;;;;1.00;0.90;;;8.60;99.90;;;;;;5053671;28;20171;-83
2023/01/16 12:04:07;;;;;;;1.83;1.13;;;8.70;99.90;;;;;;5057520;28;20651;-85
2023/01/16 12:06:52;;;;;;;0.88;0.77;;;8.80;99.90;;;;;;5056127;28;20179;-85
2023/01/16 12:09:35;;;;;;;1.67;0.90;;;8.90;99.90;;;;;;5058124;28;20175;-86
2023/01/16 12:15:01;;;;;;;0.90;0.60;;;8.80;99.90;;;;;;5077293;28;20186;-84
2023/01/16 12:18:15;;;;;;;1.00;0.82;;;8.80;99.90;;;;;;5072388;28;20730;-85
2023/01/16 12:21:00;;;;;;;1.25;0.73;;;8.70;99.90;;;;;;5045328;28;20187;-86
2023/01/16 12:23:45;;;;;;;2.10;1.60;;;8.50;99.90;;;;;;5053466;28;20163;-83
2023/01/16 12:26:23;;;;;;;0.63;0.63;;;8.60;99.90;;;;;;5048493;28;20195;-80
2023/01/16 12:29:02;;;;;;;2.22;0.90;;;8.50;99.90;;;;;;5053353;28;20257;-79
2023/01/16 12:31:38;;;;;;;2.20;0.90;;;8.60;99.90;;;;;;5052745;28;20570;-81
2023/01/16 12:34:25;;;;;;;1.15;0.60;;;8.60;99.90;;;;;;5052036;28;20233;-81
2023/01/16 12:37:12;;;;;;;3.45;0.90;;;8.50;99.90;;;;;;5053021;28;20211;-82
2023/01/16 12:39:53;;;;;;;1.20;0.93;;;8.40;99.90;;;;;;5053449;28;20177;-85
2023/01/16 12:45:59;;;;;;;1.10;0.60;;;8.70;99.90;;;;;;5072497;28;20243;-82
2023/01/16 12:48:31;;;;;;;1.58;0.70;;;8.70;99.90;;;;;;5065583;28;20178;-80
2023/01/16 12:51:21;;;;;;;0.85;0.60;;;8.50;99.90;;;;;;5072937;28;20194;-79
2023/01/16 12:54:01;;;;;;;0.52;0.50;;;8.60;99.90;;;;;;5072863;28;20238;-81
2023/01/16 12:56:55;;;;;;;0.85;0.55;;;8.70;99.90;;;;;;5072790;28;20641;-81
2023/01/16 12:59:42;;;;;;;0.73;0.60;;;8.60;99.90;;;;;;5072985;28;20170;-80
2023/01/16 13:02:27;;;;;;;3.55;0.45;;;8.60;99.90;;;;;;5071440;28;20540;-80
2023/01/16 13:04:59;;;;;;;0.70;0.55;;;8.50;99.90;;;;;;5072526;28;20285;-81
2023/01/16 13:07:29;;;;;;;0.60;0.60;;;8.50;99.90;;;;;;5071640;28;20167;-82
2023/01/16 13:15:35;;;;;;;0.50;0.50;;;8.40;99.90;;;;;;5072836;28;20201;-81
2023/01/16 13:18:09;;;;;;;0.60;0.60;;;8.60;99.90;;;;;;5056720;28;20431;-80
2023/01/16 13:20:36;;;;;;;0.57;0.55;;;8.40;99.90;;;;;;5050625;28;20250;-85
2023/01/16 13:23:13;;;;;;;0.73;0.55;;;8.50;99.90;;;;;;5052335;28;20366;-78
2023/01/16 13:25:43;;;;;;;0.95;0.80;;;8.70;99.90;;;;;;5052918;28;20201;-82
2023/01/16 13:28:26;;;;;;;0.50;0.50;;;8.60;99.90;;;;;;5051991;28;21050;-82
2023/01/16 13:30:56;;;;;;;0.75;0.60;;;8.80;99.90;;;;;;5052643;28;20187;-85
2023/01/16 13:33:28;;;;;;;1.38;0.88;;;8.70;99.90;;;;;;5056039;28;20167;-82
2023/01/16 13:36:09;;;;;;;0.95;0.70;;;8.60;99.90;;;;;;5053501;28;20202;-82
2023/01/16 13:39:06;;;;;;;0.82;0.82;;;8.50;99.90;;;;;;5054054;28;20250;-84
2023/01/16 13:41:39;;;;;;;1.20;0.88;;;8.70;99.90;;;;;;5053651;28;20296;-80
2023/01/16 13:47:10;;;;;;;0.80;0.80;;;8.60;99.90;;;;;;5055679;28;20174;-82
2023/01/16 13:49:36;;;;;;;1.83;0.85;;;8.50;99.90;;;;;;5073399;28;20158;-80
2023/01/16 13:52:03;;;;;;;1.00;0.90;;;8.50;99.90;;;;;;5055986;28;20193;-83
2023/01/16 13:54:41;;;;;;;1.10;0.82;;;8.70;99.90;;;;;;5054660;28;20215;-80
2023/01/16 13:57:23;;;;;;;1.13;0.80;;;9.00;99.90;;;;;;5052855;28;20249;-82
2023/01/16 13:59:53;;;;;;;1.17;0.90;;;8.70;99.90;;;;;;5052598;28;20225;-79
2023/01/16 14:02:26;;;;;;;0.80;0.70;;;8.80;99.90;;;;;;5051716;28;20170;-79
2023/01/16 14:05:17;;;;;;;0.70;0.70;;;8.50;99.90;;;;;;5055099;28;20273;-84
2023/01/16 14:10:41;;;;;;;0.70;0.70;;;8.80;99.90;;;;;;5056495;28;20240;-83
2023/01/16 14:13:21;;;;;;;1.45;1.05;;;8.80;99.90;;;;;;5054113;28;20167;-80
2023/01/16 14:18:47;;;;;;;0.95;0.85;;;8.80;99.90;;;;;;5054103;28;20253;-82
2023/01/16 14:21:26;;;;;;;3.35;0.85;;;8.60;99.90;;;;;;5052466;28;20677;-85
2023/01/16 14:24:02;;;;;;;1.20;1.10;;;8.40;99.90;;;;;;5050453;28;20171;-81
2023/01/16 14:26:59;;;;;;;1.17;1.08;;;8.30;99.90;;;;;;5051244;28;20627;-83
2023/01/16 14:29:35;;;;;;;1.83;1.10;;;8.30;99.90;;;;;;5050871;28;20179;-79
2023/01/16 14:32:14;;;;;;;0.80;0.75;;;8.30;99.90;;;;;;5050606;28;20197;-83
2023/01/16 14:35:12;;;;;;;1.40;1.10;;;8.20;99.90;;;;;;5050630;28;20203;-81
2023/01/16 14:37:43;;;;;;;1.92;1.30;;;8.40;99.90;;;;;;5038619;28;20206;-84
2023/01/16 14:40:08;;;;;;;3.00;1.02;;;8.30;99.90;;;;;;5059783;28;20526;-81
2023/01/16 14:56:42;;;;;;;2.80;1.13;;;8.10;99.90;;;;;;5055608;28;20623;-79